createdAt,value
2019-05-12T00:03:15.647Z,8.70
2019-05-12T00:08:21.799Z,8.60
2019-05-12T00:13:28.062Z,8.60
2019-05-12T00:18:34.269Z,8.60
2019-05-12T00:23:58.336Z,8.40
2019-05-12T00:29:07.690Z,8.40
2019-05-12T00:34:13.492Z,8.30
2019-05-12T00:39:19.707Z,8.20
2019-05-12T00:44:28.472Z,8.10
2019-05-12T00:49:34.660Z,8.00
2019-05-12T00:54:40.846Z,7.90
2019-05-12T00:59:47.825Z,7.90
2019-05-12T01:04:54.160Z,7.90
2019-05-12T01:10:01.424Z,7.80
2019-05-12T01:15:09.279Z,7.80
2019-05-12T01:20:17.799Z,7.70
2019-05-12T01:25:23.576Z,7.70
2019-05-12T01:30:29.824Z,7.60
2019-05-12T01:35:38.433Z,7.50
2019-05-12T01:40:47.510Z,7.40
2019-05-12T01:45:53.460Z,7.40
2019-05-12T01:50:59.504Z,7.30
2019-05-12T01:56:07.715Z,7.20
2019-05-12T02:01:13.367Z,7.10
2019-05-12T02:06:19.515Z,7.10
2019-05-12T02:11:38.025Z,7.00
2019-05-12T02:16:44.299Z,7.00
2019-05-12T02:21:50.666Z,7.00
2019-05-12T02:26:57.892Z,6.90
2019-05-12T02:32:04.057Z,6.80
2019-05-12T02:37:10.156Z,6.70
2019-05-12T02:42:16.452Z,6.70
2019-05-12T02:47:24.196Z,6.60
2019-05-12T02:52:30.528Z,6.60
2019-05-12T02:57:37.899Z,6.60
2019-05-12T03:02:46.254Z,6.60
2019-05-12T03:07:55.344Z,6.60
2019-05-12T03:13:04.383Z,6.50
2019-05-12T03:18:09.441Z,6.40
2019-05-12T03:23:19.176Z,6.40
2019-05-12T03:28:25.434Z,6.30
2019-05-12T03:33:36.021Z,6.30
2019-05-12T03:38:39.381Z,6.20
2019-05-12T03:43:45.887Z,6.20
2019-05-12T03:48:55.165Z,6.10
2019-05-12T03:53:59.852Z,6.00
2019-05-12T03:59:06.198Z,5.90
2019-05-12T04:04:14.965Z,5.90
2019-05-12T04:09:20.346Z,5.80
2019-05-12T04:14:26.518Z,5.80
2019-05-12T04:19:34.408Z,5.70
2019-05-12T04:24:44.345Z,5.70
2019-05-12T04:29:48.955Z,5.70
2019-05-12T04:34:55.348Z,5.60
2019-05-12T04:40:04.966Z,5.70
2019-05-12T04:45:10.613Z,5.90
2019-05-12T04:50:16.868Z,6.00
2019-05-12T04:55:25.578Z,6.10
2019-05-12T05:00:30.903Z,6.30
2019-05-12T05:05:37.064Z,6.50
2019-05-12T05:10:44.359Z,6.50
2019-05-12T05:15:50.782Z,6.70
2019-05-12T05:20:56.846Z,6.80
2019-05-12T05:26:03.350Z,7.00
2019-05-12T05:31:09.700Z,7.10
2019-05-12T05:36:19.783Z,7.30
2019-05-12T05:41:24.120Z,7.40
2019-05-12T05:46:30.401Z,7.30
2019-05-12T05:51:39.606Z,7.60
2019-05-12T05:56:57.705Z,7.80
2019-05-12T06:01:54.900Z,8.10
2019-05-12T06:07:00.252Z,8.20
2019-05-12T06:12:09.769Z,8.40
2019-05-12T06:17:14.671Z,8.50
2019-05-12T06:22:23.431Z,8.70
2019-05-12T06:27:32.540Z,8.90
2019-05-12T06:32:41.158Z,9.20
2019-05-12T06:37:57.359Z,9.40
2019-05-12T06:42:55.575Z,9.50
2019-05-12T06:48:00.686Z,9.70
2019-05-12T06:53:07.865Z,9.80
2019-05-12T06:58:14.175Z,10.20
2019-05-12T07:03:25.802Z,10.60
2019-05-12T07:08:32.916Z,10.90
2019-05-12T07:13:36.423Z,11.30
2019-05-12T07:18:43.845Z,11.60
2019-05-12T07:23:49.896Z,11.70
2019-05-12T07:28:56.499Z,12.00
2019-05-12T07:34:07.477Z,12.30
2019-05-12T07:39:13.450Z,12.30
2019-05-12T07:44:23.002Z,12.80
2019-05-12T07:49:34.484Z,13.40
2019-05-12T07:54:39.496Z,13.70
2019-05-12T07:59:45.050Z,14.20
2019-05-12T08:04:51.311Z,14.70
2019-05-12T08:09:57.683Z,14.90
2019-05-12T08:15:07.714Z,15.20
2019-05-12T08:20:13.930Z,15.40
2019-05-12T08:25:24.735Z,15.00
2019-05-12T08:30:34.253Z,14.70
2019-05-12T08:35:40.583Z,13.90
2019-05-12T08:40:50.977Z,13.90
2019-05-12T08:46:00.184Z,15.80
2019-05-12T08:51:13.583Z,16.60
2019-05-12T08:56:18.247Z,16.10
2019-05-12T09:01:25.769Z,14.90
2019-05-12T09:06:28.733Z,14.50
2019-05-12T09:11:34.868Z,14.80
2019-05-12T09:16:41.248Z,15.50
2019-05-12T09:21:47.621Z,15.80
2019-05-12T09:26:59.136Z,14.80
2019-05-12T09:32:05.357Z,14.50
2019-05-12T09:37:11.047Z,14.50
2019-05-12T09:42:19.202Z,14.60
2019-05-12T09:47:27.751Z,14.20
2019-05-12T09:52:33.571Z,14.90
2019-05-12T09:57:41.076Z,14.80
2019-05-12T10:02:51.161Z,14.50
2019-05-12T10:07:56.804Z,14.00
2019-05-12T10:13:04.785Z,14.10
2019-05-12T10:18:11.476Z,14.10
2019-05-12T10:23:20.639Z,14.40
2019-05-12T10:28:25.666Z,15.80
2019-05-12T10:33:33.681Z,16.40
2019-05-12T10:38:39.956Z,17.20
2019-05-12T10:43:48.329Z,17.30
2019-05-12T10:48:54.131Z,16.20
2019-05-12T10:54:09.172Z,16.50
2019-05-12T10:59:08.439Z,16.80
2019-05-12T11:04:14.743Z,15.80
2019-05-12T11:09:21.198Z,15.30
2019-05-12T11:14:30.481Z,16.50
2019-05-12T11:19:40.614Z,17.00
2019-05-12T11:24:45.597Z,16.10
2019-05-12T11:29:53.441Z,15.80
2019-05-12T11:34:59.858Z,15.60
2019-05-12T11:40:06.656Z,16.20
2019-05-12T11:45:13.557Z,16.90
2019-05-12T11:50:20.188Z,17.50
2019-05-12T11:55:31.347Z,17.70
2019-05-12T12:00:36.496Z,16.90
2019-05-12T12:05:44.293Z,16.40
2019-05-12T12:10:50.620Z,16.40
2019-05-12T12:16:00.476Z,16.40
2019-05-12T12:21:07.588Z,16.30
2019-05-12T12:26:26.197Z,16.20
2019-05-12T12:31:48.751Z,16.20
2019-05-12T12:36:54.932Z,16.30
2019-05-12T12:42:01.081Z,16.30
2019-05-12T12:47:07.432Z,16.80
2019-05-12T12:52:13.948Z,16.90
2019-05-12T12:57:20.513Z,17.10
2019-05-12T13:02:27.967Z,17.50
2019-05-12T13:07:34.273Z,17.20
2019-05-12T13:12:40.624Z,17.40
2019-05-12T13:17:46.874Z,17.90
2019-05-12T13:22:53.684Z,17.90
2019-05-12T13:28:01.692Z,17.30
2019-05-12T13:33:08.984Z,16.90
2019-05-12T13:38:16.007Z,16.60
2019-05-12T13:43:23.918Z,16.00
2019-05-12T13:48:30.356Z,16.00
2019-05-12T13:53:40.267Z,16.10
2019-05-12T13:58:45.927Z,16.40
2019-05-12T14:03:53.581Z,16.40
2019-05-12T14:09:00.161Z,16.40
2019-05-12T14:14:11.161Z,16.20
2019-05-12T14:19:14.632Z,16.50
2019-05-12T14:24:23.277Z,16.80
2019-05-12T14:29:30.752Z,16.60
2019-05-12T14:34:37.081Z,16.80
2019-05-12T14:39:46.101Z,17.10
2019-05-12T14:44:51.547Z,17.70
2019-05-12T14:49:57.728Z,17.80
2019-05-12T14:55:04.238Z,18.10
2019-05-12T15:00:11.369Z,17.90
2019-05-12T15:05:18.863Z,17.90
2019-05-12T15:10:25.194Z,17.50
2019-05-12T15:15:33.464Z,17.60
2019-05-12T15:20:41.611Z,18.10
2019-05-12T15:25:47.506Z,18.00
2019-05-12T15:30:54.225Z,18.20
2019-05-12T15:36:01.866Z,17.80
2019-05-12T15:41:10.783Z,17.70
2019-05-12T15:46:17.937Z,17.30
2019-05-12T15:51:24.214Z,17.20
2019-05-12T15:56:30.445Z,17.00
2019-05-12T16:01:36.788Z,16.80
2019-05-12T16:06:53.011Z,16.60
2019-05-12T16:11:51.585Z,16.50
2019-05-12T16:16:57.820Z,16.50
2019-05-12T16:22:05.392Z,16.60
2019-05-12T16:27:13.944Z,16.40
2019-05-12T16:32:26.827Z,16.40
2019-05-12T16:37:31.042Z,16.20
2019-05-12T16:42:40.742Z,15.90
2019-05-12T16:47:46.692Z,15.90
2019-05-12T16:52:53.610Z,15.90
2019-05-12T16:58:00.183Z,15.70
2019-05-12T17:03:06.474Z,15.70
2019-05-12T17:08:13.904Z,15.50
2019-05-12T17:13:25.147Z,15.50
2019-05-12T17:18:33.740Z,15.80
2019-05-12T17:23:39.418Z,15.80
2019-05-12T17:28:45.565Z,16.10
2019-05-12T17:33:54.231Z,16.60
2019-05-12T17:38:59.915Z,16.60
2019-05-12T17:44:07.271Z,16.10
2019-05-12T17:49:17.682Z,16.00
2019-05-12T17:54:26.226Z,15.80
2019-05-12T17:59:29.959Z,15.70
2019-05-12T18:04:37.384Z,15.60
2019-05-12T18:09:44.200Z,15.40
2019-05-12T18:14:52.358Z,15.40
2019-05-12T18:20:00.825Z,15.20
2019-05-12T18:25:06.825Z,15.00
2019-05-12T18:30:16.590Z,14.90
2019-05-12T18:35:21.086Z,14.90
2019-05-12T18:40:28.239Z,14.90
2019-05-12T18:45:34.798Z,14.80
2019-05-12T18:50:41.161Z,14.70
2019-05-12T18:55:47.386Z,14.60
2019-05-12T19:00:54.012Z,14.40
2019-05-12T19:06:00.595Z,14.40
2019-05-12T19:11:18.973Z,14.30
2019-05-12T19:16:15.112Z,14.30
2019-05-12T19:21:23.509Z,14.10
2019-05-12T19:26:32.916Z,14.10
2019-05-12T19:31:43.581Z,14.00
2019-05-12T19:36:49.271Z,13.80
2019-05-12T19:41:54.317Z,13.60
2019-05-12T19:47:00.729Z,13.50
2019-05-12T19:52:08.037Z,13.50
2019-05-12T19:57:21.586Z,13.40
2019-05-12T20:02:23.691Z,13.30
2019-05-12T20:07:30.415Z,13.20
2019-05-12T20:12:36.635Z,13.00
2019-05-12T20:17:44.677Z,12.90
2019-05-12T20:22:50.625Z,12.80
2019-05-12T20:28:05.871Z,12.70
2019-05-12T20:33:08.042Z,12.50
2019-05-12T20:38:14.947Z,12.50
2019-05-12T20:43:24.038Z,12.50
2019-05-12T20:48:31.157Z,12.40
2019-05-12T20:53:36.916Z,12.30
2019-05-12T20:58:45.859Z,12.20
2019-05-12T21:03:51.143Z,12.10
2019-05-12T21:08:57.365Z,11.90
2019-05-12T21:14:09.986Z,11.70
2019-05-12T21:19:14.111Z,11.60
2019-05-12T21:24:19.103Z,11.50
2019-05-12T21:29:29.727Z,11.40
2019-05-12T21:34:34.502Z,11.30
2019-05-12T21:39:46.053Z,11.20
2019-05-12T21:44:49.028Z,11.20
2019-05-12T21:49:57.967Z,11.10
2019-05-12T21:55:06.317Z,11.00
2019-05-12T22:00:23.645Z,11.00
2019-05-12T22:05:50.043Z,10.90
2019-05-12T22:10:38.786Z,10.90
2019-05-12T22:15:44.983Z,10.80
2019-05-12T22:20:52.336Z,10.60
2019-05-12T22:26:00.256Z,10.60
2019-05-12T22:31:06.615Z,10.60
2019-05-12T22:36:20.643Z,10.40
2019-05-12T22:41:20.631Z,10.50
2019-05-12T22:46:31.191Z,10.20
2019-05-12T22:51:34.527Z,10.20
2019-05-12T22:56:40.641Z,10.20
2019-05-12T23:01:47.781Z,10.00
2019-05-12T23:06:53.781Z,9.90
2019-05-12T23:12:00.072Z,10.00
2019-05-12T23:17:07.502Z,9.90
2019-05-12T23:22:15.330Z,9.80
2019-05-12T23:27:28.163Z,9.80
2019-05-12T23:32:29.835Z,9.70
2019-05-12T23:37:40.137Z,9.60
2019-05-12T23:42:44.678Z,9.50
2019-05-12T23:47:50.903Z,9.50
2019-05-12T23:52:57.224Z,9.40
2019-05-12T23:58:04.153Z,9.30
